Nearby METAR Reports

 

KOAK - Oakland, California, USA
Distance from station: SSW 6mi, 9km
Updated: Mon, 11-Dec-2017 9:53pm PST
Partly cloudy
Partly cloudy
 Wind from calm
Wind: Calm
Temperature: 45°F , 7°C
Dew Point: 37°F , 3°C
Humidity: 76%
Barometer: 30.33 inHg , 1027.1 hPa
Clouds: Partly cloudy
Visibility: 10 miles , 16 km
Cloud details: Few Clouds 5000 ft
Partly cloudy 20000 ft
2017/12/12 05:53 KOAK 120553Z 00000KT 10SM FEW050 SCT200 07/03 A3033 RMK AO2 SLP269 T00670028 10150 20067 53012
KHWD - Hayward, California, USA
Distance from station: SSE 8mi, 12km
Updated: Mon, 11-Dec-2017 9:54pm PST
Clear
Clear
 Wind from ENE
Wind: ENE 3 mph , 6 km/h
Temperature: 50°F , 10°C
Dew Point: 30°F , -1°C
Humidity: 47%
Barometer: 30.32 inHg , 1026.8 hPa
Clouds: Clear
Visibility: 10 miles , 16 km
2017/12/12 05:54 KHWD 120554Z AUTO 07003KT 10SM CLR 10/M01 A3032 RMK AO2 SLP276 T01001011 10167 20100 53009
KSFO - San Francisco, California, USA
Distance from station: SW 15mi, 25km
Updated: Mon, 11-Dec-2017 9:56pm PST
Mostly cloudy
Mostly cloudy
 Wind from NNE
Wind: NNE 6 mph , 9 km/h
Temperature: 55°F , 13°C
Dew Point: 45°F , 7°C
Humidity: 67%
Barometer: 30.31 inHg , 1026.4 hPa
Clouds: Mostly cloudy
Visibility: 10 miles , 16 km
Cloud details: Mostly cloudy 20000 ft
2017/12/12 05:56 KSFO 120556Z 02005KT 10SM BKN200 13/07 A3031 RMK AO2 SLP265 T01280072 10183 20117 52009
 
KCCR - Concord, California, USA
Distance from station: NNE 17mi, 27km
Updated: Mon, 11-Dec-2017 9:53pm PST
Clear
Clear
 Wind from calm
Wind: Calm
Temperature: 45°F , 7°C
Dew Point: 36°F , 2°C
Humidity: 71%
Barometer: 30.34 inHg , 1027.4 hPa
Clouds: Clear
Visibility: 10 miles , 16 km
2017/12/12 05:53 KCCR 120553Z 00000KT 10SM CLR 07/02 A3034 RMK AO2 SLP258 T00670017 10194 20067 53012
KSQL - San Carlos Airpo, California, USA
Distance from station: SSW 18mi, 29km
Updated: Mon, 11-Dec-2017 10:15pm PST
Mostly cloudy
Mostly cloudy
 Wind from calm
Wind: Calm
Temperature: 48°F , 9°C
Dew Point: 37°F , 3°C
Humidity: 66%
Barometer: 30.32 inHg , 1026.8 hPa
Clouds: Mostly cloudy
Visibility: 10 miles , 16 km
Cloud details: Mostly cloudy 6000 ft
2017/12/12 06:15 KSQL 120615Z AUTO 00000KT 10SM BKN060 09/03 A3032 RMK AO2
KLVK - Livermore, California, USA
Distance from station: ESE 20mi, 31km
Updated: Mon, 11-Dec-2017 9:53pm PST
Clear
Clear
 Wind from calm
Wind: Calm
Temperature: 41°F , 5°C
Dew Point: 30°F , -1°C
Humidity: 66%
Barometer: 30.32 inHg , 1026.8 hPa
Clouds: Clear
Visibility: 10 miles , 16 km
2017/12/12 05:53 KLVK 120553Z AUTO 00000KT 10SM CLR 05/M01 A3032 RMK AO2 SLP269 T00501006 10167 20039 51007
 
KPAO - Palo Alto, California, USA
Distance from station: S 21mi, 34km
Updated: Mon, 11-Dec-2017 8:47pm PST
NOT Current
Clear
Clear
 Wind from calm
Wind: Calm
Temperature: 45°F , 7°C
Dew Point: 39°F , 4°C
Humidity: 81%
Barometer: 30.31 inHg , 1026.4 hPa
Clouds: Clear
Visibility: 10 miles , 16 km
2017/12/12 04:47 KPAO 120447Z 00000KT 10SM SKC 07/04 A3031
KHAF - Half Moon Bay, California, USA
Distance from station: SW 25mi, 41km
Updated: Mon, 11-Dec-2017 10:15pm PST
Overcast
Overcast
 Wind from NW
Wind: NW 3 mph , 6 km/h
Temperature: 55°F , 13°C
Dew Point: 25°F , -4°C
Humidity: 31%
Barometer: 30.26 inHg , 1024.7 hPa
Clouds: Overcast
Visibility: 10 miles , 16 km
Cloud details: Overcast 6500 ft
2017/12/12 06:15 KHAF 120615Z AUTO 32003KT 10SM OVC065 13/M04 A3026 RMK AO2
KNUQ - Moffett Nas/Mtn, California, USA
Distance from station: SSE 26mi, 42km
Updated: Mon, 11-Dec-2017 9:56pm PST
Clear
Clear
 Wind from calm
Wind: Calm
Temperature: 48°F , 9°C
Dew Point: 37°F , 3°C
Humidity: 66%
Barometer: 30.32 inHg , 1026.8 hPa
Clouds: Clear
Visibility: 10 miles , 16 km
2017/12/12 05:56 KNUQ 120556Z 00000KT 10SM CLR 09/03 A3032 RMK AO2 SLP271 T00890028 10183 20089 53008
 
KAPC - Napa, California, USA
Distance from station: NNW 30mi, 49km
Updated: Mon, 11-Dec-2017 9:54pm PST
Clear
Clear
 Wind from N
Wind: N 5 mph , 7 km/h
Temperature: 43°F , 6°C
Wind Chill: 40°F , 4°C
Dew Point: 36°F , 2°C
Humidity: 76%
Barometer: 30.33 inHg , 1027.1 hPa
Clouds: Clear
Visibility: 10 miles , 16 km
2017/12/12 05:54 KAPC 120554Z AUTO 01004KT 10SM CLR 06/02 A3033 RMK AO2 SLP262 T00610017 10172 20028 51012
KSJC - San Jose, California, USA
Distance from station: SSE 31mi, 50km
Updated: Mon, 11-Dec-2017 9:53pm PST
Mostly cloudy
Mostly cloudy
 Wind from SE
Wind: SE 5 mph , 7 km/h
Temperature: 52°F , 11°C
Dew Point: 37°F , 3°C
Humidity: 58%
Barometer: 30.32 inHg , 1026.8 hPa
Clouds: Mostly cloudy
Visibility: 10 miles , 16 km
Cloud details: Few Clouds 300 ft
Partly cloudy 11000 ft
Mostly cloudy 16000 ft
2017/12/12 05:53 KSJC 120553Z 13004KT 10SM FEW003 SCT110 BKN160 11/03 A3032 RMK AO2 SLP265 FU FEW003 T01110033 10194 20106 51007 $
KDVO - Novato/Gnoss Fld, California, USA
Distance from station: NW 34mi, 54km
Updated: Mon, 11-Dec-2017 10:15pm PST
Clear
Clear
 Wind from calm
Wind: Calm
Temperature: 37°F , 3°C
Dew Point: 36°F , 2°C
Humidity: 93%
Barometer: 30.34 inHg , 1027.4 hPa
Clouds: Clear
Visibility: 10 miles , 16 km
2017/12/12 06:15 KDVO 120615Z AUTO 00000KT 10SM CLR 03/02 A3034 RMK AO2
 
KRHV - San Jose/Reid, California, USA
Distance from station: SSE 37mi, 59km
Updated: Mon, 11-Dec-2017 9:54pm PST
Mostly cloudy
Mostly cloudy
 Wind from calm
Wind: Calm
Temperature: 46°F , 8°C
Dew Point: 37°F , 3°C
Humidity: 71%
Barometer: 30.30 inHg , 1026.1 hPa
Clouds: Mostly cloudy
Visibility: 10 miles , 16 km
Cloud details: Mostly cloudy 10000 ft
2017/12/12 05:54 KRHV 120554Z 00000KT 10SM BKN100 08/03 A3030 RMK LAST
KSUU - Travis Afb/Fairf, California, USA
Distance from station: NNE 37mi, 59km
Updated: Mon, 11-Dec-2017 9:58pm PST
Clear
Clear
 Wind from calm
Wind: Calm
Temperature: 36°F , 2°C
Dew Point: 32°F , 0°C
Humidity: 87%
Barometer: 30.32 inHg , 1026.8 hPa
Clouds: Clear
Visibility: 10 miles , 16 km
2017/12/12 05:58 KSUU 120558Z AUTO 00000KT 10SM CLR 02/00 A3032 RMK AO2 SLP275 T00220003 10163 20022 52011
KO69 - Petaluma, California, USA
Distance from station: NW 41mi, 66km
Updated: Mon, 11-Dec-2017 10:15pm PST
Clear
Clear
 Wind from calm
Wind: Calm
Temperature: 37°F , 3°C
Dew Point: 34°F , 1°C
Humidity: 87%
Barometer: 30.33 inHg , 1027.1 hPa
Clouds: Clear
Visibility: 10 miles , 16 km
2017/12/12 06:15 KO69 120615Z AUTO 00000KT 10SM CLR 03/01 A3033 RMK A01
 
KVCB - Vacaville, California, USA
Distance from station: NNE 44mi, 71km
Updated: Mon, 11-Dec-2017 9:53pm PST
Clear
Clear
 Wind from calm
Wind: Calm
Temperature: 37°F , 3°C
Dew Point: 30°F , -1°C
Humidity: 75%
Barometer: 30.35 inHg , 1027.8 hPa
Clouds: Clear
Visibility: 10 miles , 16 km
2017/12/12 05:53 KVCB 120553Z AUTO 00000KT 10SM CLR 03/M01 A3035 RMK AO2 SLP275 T00281006 10189 20028 53012